• Join FlightAware (Why Join?)
  • Login
  • US Flag 
11:29AM EST


 

Airport Tracker/Info


-or-


 

Live Flight TrackerFlight Track Log ✈ N172RA ✈ 14-Jul-2013 ✈ KTLH - KEVB

Flight Track Log - Related Links

Times and Time Zones

All times are in EDT time to prevent confusion due to time zone crossing. See the N172RA flight status page for this flight to view local times or setup timezone preferences in your user account.

Time Position Orientation Groundspeed Altitude Reporting Facility
EDT Latitude Longitude Course Direction KTS MPH feet Rate Location/Type
06:49PM 30.4382 -84.1782 76° East  Level FlightAware Approximate
06:50PM 30.4448 -84.1486 76° East  Level FlightAware Approximate
06:51PM 30.4514 -84.1189 76° East  Level FlightAware Approximate
06:52PM 30.4580 -84.0892 76° East  Level FlightAware Approximate
06:53PM 30.4646 -84.0595 76° East  Level FlightAware Approximate
06:54PM 30.4725 -84.0302 71° East  Level FlightAware Approximate
06:55PM 30.4814 -84.0001 71° East  Level FlightAware Approximate
06:56PM 30.4903 -83.9699 71° East  Level FlightAware Approximate
06:57PM 30.4992 -83.9398 71° East  Level FlightAware Approximate
06:58PM 30.5080 -83.9096 71° East  Level FlightAware Approximate
06:59PM 30.5169 -83.8795 71° East  Level FlightAware Approximate
07:00PM 30.5258 -83.8493 71° East  Level FlightAware Approximate
07:01PM 30.5346 -83.8191 71° East  Level FlightAware Approximate
07:02PM 30.5435 -83.7889 71° East  Level FlightAware Approximate
07:02PM 30.2419 -83.8567 126° Southeast 97 112 7,000  Level Jacksonville Center
07:03PM 30.5458 -83.7599 125° Southeast  Level FlightAware Approximate
07:03PM 30.2358 -83.8278 104° East 97 112 7,000  Level Jacksonville Center
07:04PM 30.5299 -83.7339 125° Southeast  Level FlightAware Approximate
07:04PM 30.2172 -83.8036 132° Southeast 92 106 6,900  Level Jacksonville Center
07:05PM 30.5140 -83.7080 125° Southeast  Level FlightAware Approximate
07:05PM 30.2092 -83.7769 109° East 92 106 7,000  Level Jacksonville Center
07:06PM 30.4980 -83.6820 126° Southeast  Level FlightAware Approximate
07:06PM 30.2053 -83.7433 98° East 92 106 7,000  Level Jacksonville Center
07:07PM 30.4820 -83.6561 126° Southeast  Level FlightAware Approximate
07:07PM 30.1950 -83.7144 112° Southeast 92 106 7,000  Level Jacksonville Center
07:08PM 30.1847 -83.6856 112° Southeast 92 106 7,000  Level Jacksonville Center
07:09PM 30.1703 -83.6542 118° Southeast 92 106 7,000  Level Jacksonville Center
07:10PM 30.1581 -83.6228 114° Southeast 98 113 7,000  Level Jacksonville Center
07:11PM 30.1497 -83.5917 107° East 98 113 7,000  Level Jacksonville Center
07:12PM 30.1436 -83.5603 103° East 98 113 7,000  Level Jacksonville Center
07:13PM 30.1333 -83.5289 111° Southeast 98 113 7,000  Level Jacksonville Center
07:14PM 30.1211 -83.5025 118° Southeast 98 113 7,000  Level Jacksonville Center
07:15PM 30.1064 -83.4736 120° Southeast 98 113 7,000 -60 Level Jacksonville Center
07:16PM 30.0919 -83.4472 122° Southeast 98 113 6,900  Descending Jacksonville Center
07:17PM 30.0817 -83.4183 112° Southeast 98 113 7,000 60 Climbing Jacksonville Center
07:18PM 30.0756 -83.3847 102° East 93 107 7,100  Climbing Jacksonville Center
07:19PM 30.0694 -83.3511 102° East 93 107 7,100 -60 Level Jacksonville Center
07:20PM 30.0633 -83.3197 103° East 99 114 7,000 -60 Descending Jacksonville Center
07:21PM 30.0592 -83.2886 99° East 99 114 7,000 -60 Level Jacksonville Center
07:22PM 30.0508 -83.2597 108° East 94 108 6,900  Descending Jacksonville Center
07:23PM 30.0469 -83.2308 99° East 89 102 7,100 60 Climbing Jacksonville Center
07:24PM 30.0406 -83.1997 103° East 89 102 7,100 -60 Level Jacksonville Center
07:25PM 30.0428 -83.1708 85° East 89 102 7,000 -120 Descending Jacksonville Center
07:26PM 30.0553 -83.1397 65° Northeast 89 102 6,900 -60 Descending Jacksonville Center
07:27PM 30.0556 -83.1061 89° East 89 102 6,900  Level Jacksonville Center
07:28PM 30.0492 -83.0750 103° East 89 102 6,900  Level Jacksonville Center
07:29PM 30.0306 -83.0486 129° Southeast 94 108 6,900  Level Jacksonville Center
07:30PM 30.0181 -83.0172 115° Southeast 99 114 6,900  Level Jacksonville Center
07:31PM 30.0056 -82.9908 119° Southeast 99 114 7,000  Climbing Jacksonville Center
07:32PM 29.9908 -82.9622 121° Southeast 99 114 7,000  Level Jacksonville Center
07:33PM 29.9764 -82.9358 122° Southeast 99 114 7,000 120 Level Jacksonville Center
07:33PM 29.9639 -82.9189 130° Southeast 99 114 7,200 60 Climbing Jacksonville Center
07:34PM 29.9556 -82.9022 120° Southeast 101 116 7,100 -120 Descending Jacksonville Center
07:35PM 29.9469 -82.8806 115° Southeast 99 114 7,100 -60 Level Jacksonville Center
07:36PM 29.9303 -82.8469 120° Southeast 99 114 7,000 -60 Descending Jacksonville Center
07:37PM 29.9158 -82.8158 118° Southeast 109 125 7,000  Level Jacksonville Center
07:38PM 29.9053 -82.7847 111° Southeast 102 117 7,000 -60 Level Jacksonville Center
07:39PM 29.8844 -82.7583 132° Southeast 107 123 6,900 -60 Descending Jacksonville Center
07:40PM 29.8678 -82.7322 126° Southeast 100 115 6,900  Level Jacksonville Center
07:41PM 29.8531 -82.7033 120° Southeast 107 123 7,000  Climbing Jacksonville Center
07:42PM 29.8403 -82.6747 117° Southeast 94 108 7,000  Level Jacksonville Center
07:43PM 29.8300 -82.6436 111° Southeast 100 115 7,000 -60 Level Jacksonville Center
07:44PM 29.8194 -82.6125 111° Southeast 100 115 6,900  Descending Jacksonville Center
07:45PM 29.8025 -82.5767 119° Southeast 105 121 7,100 -60 Climbing Jacksonville Center
07:46PM 29.7900 -82.5481 117° Southeast 107 123 6,800 -420 Descending Jacksonville Center
07:47PM 29.7753 -82.5169 119° Southeast 108 124 6,300 -420 Descending Jacksonville Center
07:48PM 29.7628 -82.4883 117° Southeast 101 116 6,000 -120 Descending Jacksonville Center
07:49PM 29.7522 -82.4572 111° Southeast 95 109 6,100  Climbing Jacksonville Center
07:50PM 29.7417 -82.4308 115° Southeast 99 114 6,100  Level Jacksonville Center
07:51PM 29.7269 -82.4000 119° Southeast 102 117 6,100 -60 Level Jacksonville Center
07:52PM 29.7081 -82.3689 125° Southeast 106 122 6,000 -60 Descending Jacksonville Center
07:53PM 29.6933 -82.3428 123° Southeast 104 120 6,000  Level Jacksonville Center
07:54PM 29.6806 -82.3117 115° Southeast 102 117 6,100  Climbing Jacksonville Center
07:55PM 29.6700 -82.2831 113° Southeast 107 123 6,100  Level Jacksonville Center
07:57PM 29.6406 -82.2258 121° Southeast 97 112 6,100  Level Jacksonville Center
07:58PM 29.6278 -82.1997 119° Southeast 92 106 6,100  Level Jacksonville Center
07:59PM 29.6172 -82.1711 113° Southeast 100 115 6,100  Level Jacksonville Center
08:00PM 29.6003 -82.1403 122° Southeast 107 123 6,100  Level Jacksonville Center
08:01PM 29.5836 -82.1092 122° Southeast 105 121 6,100  Level Jacksonville Center
08:02PM 29.5708 -82.0806 117° Southeast 103 119 6,100 -60 Level Jacksonville Center
08:03PM 29.5581 -82.0544 119° Southeast 99 114 6,000 -60 Descending Jacksonville Center
08:04PM 29.5453 -82.0261 117° Southeast 102 117 6,000  Level Jacksonville Center
08:05PM 29.5306 -81.9950 119° Southeast 100 115 6,100  Climbing Jacksonville Center
08:06PM 29.5158 -81.9667 121° Southeast 96 110 6,100 -60 Level Jacksonville Center
08:07PM 29.5031 -81.9381 117° Southeast 99 114 6,000  Descending Jacksonville Center
08:08PM 29.4903 -81.9119 119° Southeast 97 112 6,100  Climbing Jacksonville Center
08:09PM 29.4756 -81.8858 123° Southeast 98 113 6,100  Level Jacksonville Center
08:10PM 29.4689 -81.8597 106° East 95 109 6,100  Level Jacksonville Center
08:11PM 29.4561 -81.8311 117° Southeast 98 113 6,100  Level Jacksonville Center
08:12PM 29.4433 -81.8003 115° Southeast 99 114 6,100  Level Jacksonville Center
08:13PM 29.4308 -81.7767 121° Southeast 102 117 6,100  Level Jacksonville Center
08:14PM 29.4244 -81.7600 114° Southeast 102 117 6,100  Level Jacksonville Center
08:15PM 29.4117 -81.7339 119° Southeast 101 116 6,100  Level Jacksonville Center
08:16PM 29.3947 -81.7103 129° Southeast 104 120 6,100  Level Jacksonville Center
08:17PM 29.3756 -81.6844 130° Southeast 96 110 6,100  Level Jacksonville Center
08:18PM 29.3628 -81.6558 117° Southeast 97 112 6,100 -120 Level Jacksonville Center
08:19PM 29.3439 -81.6347 136° Southeast 100 115 5,900 -360 Descending Jacksonville Center
08:20PM 29.3186 -81.6231 158° South 106 122 5,500 -540 Descending Jacksonville Center
08:21PM 29.3017 -81.5972 127° Southeast 106 122 4,900 -660 Descending Jacksonville Center
08:22PM 29.2828 -81.5711 130° Southeast 98 113 4,200 -480 Descending Jacksonville Center
08:23PM 29.2697 -81.5453 120° Southeast 91 105 4,000 -60 Descending Jacksonville Center
08:24PM 29.2467 -81.5194 136° Southeast 104 120 4,100  Climbing Jacksonville Center
08:25PM 29.2297 -81.4981 132° Southeast 100 115 4,100  Level Jacksonville Center
08:26PM 29.2086 -81.4747 136° Southeast 100 115 4,100  Level Jacksonville Center
08:27PM 29.1917 -81.4489 127° Southeast 100 115 4,100 -60 Level Jacksonville Center
08:28PM 29.1767 -81.4275 129° Southeast 99 114 4,000 -300 Descending Jacksonville Center
08:29PM 29.1514 -81.4042 141° Southeast 94 108 3,500 -600 Descending Jacksonville Center
08:30PM 29.1325 -81.3878 143° Southeast 96 110 2,800 -600 Descending Jacksonville Center
08:31PM 29.1217 -81.3619 116° Southeast 96 110 2,400 -360 Descending Jacksonville Center
08:32PM 29.1131 -81.3358 111° Southeast 88 101 2,100 -180 Descending Jacksonville Center
08:33PM 29.1064 -81.3050 104° East 90 104 2,100  Level Jacksonville Center
08:35PM 29.0869 -81.2506 112° Southeast 89 102 2,200  Climbing Jacksonville Center
08:36PM 29.0742 -81.2247 120° Southeast 85 98 2,200  Level Jacksonville Center
08:37PM 29.0633 -81.2011 118° Southeast 91 105 2,200  Level Jacksonville Center
08:38PM 29.0567 -81.1775 108° East 86 99 2,300 60 Climbing Jacksonville Center
08:39PM 29.0461 -81.1539 117° Southeast 86 99 2,400 -180 Climbing Jacksonville Center
08:40PM 29.0269 -81.1331 136° Southeast 91 105 2,000 -420 Descending Jacksonville Center
08:41PM 29.0058 -81.1119 139° Southeast 93 107 1,600 -180 Descending Jacksonville Center
08:42PM 29.0075 -81.0833 86° East 101 116 1,700  Climbing Jacksonville Center
08:43PM 29.0092 -81.0525 86° East 97 112 1,700 -60 Level Jacksonville Center
08:44PM 29.0233 -81.0261 58° Northeast 92 106 1,600 -360 Descending Jacksonville Center
08:45PM 29.0333 -81.0022 64° Northeast 88 101 1,000 -540 Descending Jacksonville Center
08:46PM 29.0478 -80.9806 53° Northeast 83 96 600 -420 Descending Jacksonville Center
08:48PM 29.0557 -80.9489 99° East  Level Estimated
08:55PM 29.0557 -80.9489 99° East  Level Estimated
08:56PM 29.0557 -80.9489 99° East  Level Estimated
08:57PM 29.0557 -80.9489 99° East  Level Estimated